TGZ weather

Angel Albino Corzo International Airport
Tuxtla GutiƩrrez, Chiapas, Mexico

Public forecast

Using degrees Celsius for public forecast. Weather courtesy of forecast.io.

METAR (pilot weather report)

Retrieved 2019/06/27 11:44 UTC (0 seconds ago):

MMTG 271144Z 16002KT 3SM BR SCT080 BKN300 21/20 A2998 RMK SLP120 5//// 953 8/072 BCFG ARND VSBY 1SM S VRBL COND

TAF (pilot weather forecast)

Forecast is more than 12 hours old.

Retrieved 2019/06/26 18:33 UTC (17 hours ago):

TAF MMTG 261630Z 2618/2718 32005KT P6SM SCT025 SCT300 FM262100 32015KT P6SM BKN025CB BKN090 TEMPO 2623/2703 4SM TSRA FM270400 34005KT P6SM SCT020 BKN080 FM271000 00000KT 5SM HZ SCT015 SCT080 TEMPO 2711/2715 3SM BR HZ BKN015